Time;durP1;ratioP1;P1;durP2;ratioP2;P2;SDS_P1;SDS_P2;PMS_P1;PMS_P2;Temp;Humidity;BMP_temperature;BMP_pressure;BME280_temperature;BME280_humidity;BME280_pressure;Samples;Min_cycle;Max_cycle;Signal;HPM_P1;HPM_P2
2022/08/16 00:00:50;;;;;;;12.50;7.00;;;;;;;;;;5015603;28;20183;-67
2022/08/16 00:03:16;;;;;;;6.63;5.80;;;;;;;;;;5033854;28;20183;-68
2022/08/16 00:05:43;;;;;;;8.53;5.80;;;;;;;;;;5015486;28;20199;-66
2022/08/16 00:08:09;;;;;;;8.43;6.30;;;;;;;;;;5033284;28;20179;-66
2022/08/16 00:10:35;;;;;;;8.00;5.87;;;;;;;;;;5015438;28;20666;-66
2022/08/16 00:13:03;;;;;;;8.90;5.70;;;;;;;;;;5015563;28;20232;-66
2022/08/16 00:15:37;;;;;;;7.60;6.00;;;;;;;;;;5033188;28;20203;-66
2022/08/16 00:18:04;;;;;;;9.00;6.00;;;;;;;;;;5033059;28;20198;-66
2022/08/16 00:20:31;;;;;;;7.13;5.37;;;;;;;;;;5033436;28;20186;-66
2022/08/16 00:22:57;;;;;;;10.67;6.20;;;;;;;;;;5033391;28;20175;-68
2022/08/16 00:25:23;;;;;;;7.70;6.10;;;;;;;;;;5015170;28;20276;-67
2022/08/16 00:27:49;;;;;;;9.90;6.30;;;;;;;;;;5033273;28;20661;-66
2022/08/16 00:30:17;;;;;;;9.63;5.87;;;;;;;;;;5015432;28;20187;-66
2022/08/16 00:32:45;;;;;;;8.47;5.80;;;;;;;;;;5033055;28;20266;-66
2022/08/16 00:35:13;;;;;;;6.50;5.80;;;;;;;;;;5032960;28;20201;-66
2022/08/16 00:37:39;;;;;;;6.53;5.20;;;;;;;;;;5033511;28;20203;-66
2022/08/16 00:40:07;;;;;;;10.17;5.70;;;;;;;;;;5032916;28;20596;-66
2022/08/16 00:42:33;;;;;;;7.03;5.30;;;;;;;;;;5015342;28;20186;-66
2022/08/16 00:45:19;;;;;;;6.10;4.90;;;;;;;;;;5032853;28;20202;-67
2022/08/16 00:47:46;;;;;;;7.03;5.10;;;;;;;;;;5032488;28;20186;-67
2022/08/16 00:50:13;;;;;;;5.50;5.00;;;;;;;;;;5015160;28;20194;-66
2022/08/16 00:52:40;;;;;;;10.13;5.60;;;;;;;;;;5033042;28;20549;-67
2022/08/16 00:55:06;;;;;;;6.50;4.57;;;;;;;;;;5032753;28;20203;-66
2022/08/16 00:57:32;;;;;;;8.37;5.60;;;;;;;;;;5014965;28;20210;-66
2022/08/16 01:00:00;;;;;;;8.37;5.73;;;;;;;;;;5015129;28;20194;-67
2022/08/16 01:02:26;;;;;;;5.73;5.03;;;;;;;;;;5015031;28;20183;-67
2022/08/16 01:04:52;;;;;;;8.67;5.00;;;;;;;;;;5014975;28;20207;-67
2022/08/16 01:07:18;;;;;;;5.80;5.10;;;;;;;;;;5032744;28;20183;-67
2022/08/16 01:09:45;;;;;;;5.30;4.80;;;;;;;;;;5034407;28;20190;-66
2022/08/16 01:12:11;;;;;;;5.50;5.00;;;;;;;;;;5018706;28;20183;-67
2022/08/16 01:14:42;;;;;;;5.93;5.10;;;;;;;;;;5036283;28;20202;-67
2022/08/16 01:17:08;;;;;;;5.10;4.60;;;;;;;;;;5036621;28;20270;-66
2022/08/16 01:19:37;;;;;;;7.13;5.10;;;;;;;;;;5036569;28;20179;-67
2022/08/16 01:22:18;;;;;;;5.83;5.23;;;;;;;;;;5036316;28;20179;-67
2022/08/16 01:24:55;;;;;;;6.53;4.70;;;;;;;;;;5036040;28;20211;-67
2022/08/16 01:27:23;;;;;;;6.00;4.43;;;;;;;;;;5019246;28;20210;-67
2022/08/16 01:29:57;;;;;;;8.13;4.70;;;;;;;;;;5036120;28;20179;-67
2022/08/16 01:32:23;;;;;;;8.87;4.70;;;;;;;;;;5018516;28;20167;-67
2022/08/16 01:34:49;;;;;;;5.53;4.77;;;;;;;;;;5035934;28;20221;-66
2022/08/16 01:37:15;;;;;;;8.90;5.00;;;;;;;;;;5036099;28;20237;-68
2022/08/16 01:39:41;;;;;;;5.67;4.90;;;;;;;;;;5035960;28;20183;-68
2022/08/16 01:42:08;;;;;;;5.50;4.80;;;;;;;;;;5036465;28;20213;-67
2022/08/16 01:44:35;;;;;;;8.10;4.60;;;;;;;;;;5018021;28;20199;-67
2022/08/16 01:47:01;;;;;;;5.57;4.67;;;;;;;;;;5036116;28;20218;-67
2022/08/16 01:49:31;;;;;;;5.40;4.67;;;;;;;;;;5018062;28;20274;-67
2022/08/16 01:51:59;;;;;;;5.50;4.60;;;;;;;;;;5017940;28;20187;-68
2022/08/16 01:54:25;;;;;;;4.93;4.47;;;;;;;;;;5035589;28;20198;-67
2022/08/16 01:56:51;;;;;;;5.73;4.70;;;;;;;;;;5017782;28;20644;-67
2022/08/16 01:59:17;;;;;;;5.07;4.57;;;;;;;;;;5035740;28;20179;-68
2022/08/16 02:01:44;;;;;;;5.83;4.40;;;;;;;;;;5035893;28;20245;-68
2022/08/16 02:04:11;;;;;;;10.13;4.63;;;;;;;;;;5036898;28;20191;-68
2022/08/16 02:06:37;;;;;;;4.73;4.33;;;;;;;;;;5019191;28;20241;-68
2022/08/16 02:09:03;;;;;;;4.57;4.10;;;;;;;;;;5037135;28;20194;-67
2022/08/16 02:11:29;;;;;;;6.73;4.47;;;;;;;;;;5037658;28;20175;-68
2022/08/16 02:13:55;;;;;;;6.73;4.97;;;;;;;;;;5018897;28;20214;-68
2022/08/16 02:16:21;;;;;;;4.83;4.20;;;;;;;;;;5036229;28;20175;-68
2022/08/16 02:18:47;;;;;;;8.67;5.17;;;;;;;;;;5035575;28;20211;-67
2022/08/16 02:21:13;;;;;;;5.53;4.57;;;;;;;;;;5017736;28;20190;-68
2022/08/16 02:23:40;;;;;;;8.47;4.87;;;;;;;;;;5035303;28;20179;-68
2022/08/16 02:26:06;;;;;;;7.90;4.33;;;;;;;;;;5035384;28;20266;-68
2022/08/16 02:28:33;;;;;;;7.70;5.07;;;;;;;;;;5035617;28;20210;-68
2022/08/16 02:31:01;;;;;;;5.90;4.83;;;;;;;;;;5035012;28;20191;-68
2022/08/16 02:33:27;;;;;;;5.87;4.57;;;;;;;;;;5035082;28;20180;-68
2022/08/16 02:35:53;;;;;;;6.40;4.70;;;;;;;;;;5035392;28;20278;-67
2022/08/16 02:38:19;;;;;;;7.07;5.20;;;;;;;;;;5016972;28;20210;-68
2022/08/16 02:40:45;;;;;;;5.13;4.60;;;;;;;;;;5017061;28;20179;-68
2022/08/16 02:43:12;;;;;;;5.67;4.60;;;;;;;;;;5016985;28;20175;-68
2022/08/16 02:45:38;;;;;;;5.93;4.90;;;;;;;;;;5016857;28;20206;-68
2022/08/16 02:48:04;;;;;;;6.53;5.13;;;;;;;;;;5016921;28;20558;-67
2022/08/16 02:50:30;;;;;;;6.93;5.03;;;;;;;;;;5034473;28;20210;-67
2022/08/16 02:52:56;;;;;;;6.97;5.20;;;;;;;;;;5034567;28;20186;-68
2022/08/16 02:55:22;;;;;;;7.30;5.63;;;;;;;;;;5034300;28;20203;-67
2022/08/16 02:57:48;;;;;;;5.70;5.10;;;;;;;;;;5034509;28;20203;-67
2022/08/16 03:00:14;;;;;;;10.57;4.90;;;;;;;;;;5016599;28;20209;-67
2022/08/16 03:02:41;;;;;;;8.93;5.30;;;;;;;;;;5016409;28;20191;-67
2022/08/16 03:05:08;;;;;;;9.47;5.33;;;;;;;;;;5034155;28;20202;-67
2022/08/16 03:07:34;;;;;;;6.43;5.23;;;;;;;;;;5016441;28;20175;-67
2022/08/16 03:10:00;;;;;;;8.77;5.60;;;;;;;;;;5034121;28;20282;-67
2022/08/16 03:12:26;;;;;;;6.23;4.80;;;;;;;;;;5016297;28;20179;-67
2022/08/16 03:14:52;;;;;;;8.63;5.63;;;;;;;;;;5033987;28;20203;-67
2022/08/16 03:17:18;;;;;;;7.30;5.13;;;;;;;;;;5033891;28;20207;-67
2022/08/16 03:19:44;;;;;;;7.83;5.00;;;;;;;;;;5034193;28;20186;-67
2022/08/16 03:22:10;;;;;;;7.17;5.00;;;;;;;;;;5033912;28;20262;-67
2022/08/16 03:24:37;;;;;;;8.30;5.03;;;;;;;;;;5033610;28;20211;-67
2022/08/16 03:27:03;;;;;;;5.43;4.93;;;;;;;;;;5016151;28;20655;-67
2022/08/16 03:29:30;;;;;;;8.40;5.23;;;;;;;;;;5016061;28;20179;-68
2022/08/16 03:31:57;;;;;;;8.30;5.30;;;;;;;;;;5015476;28;20183;-68
2022/08/16 03:34:23;;;;;;;7.73;5.53;;;;;;;;;;5033722;28;20213;-67
2022/08/16 03:36:49;;;;;;;6.70;5.30;;;;;;;;;;5033951;28;20187;-68
2022/08/16 03:39:15;;;;;;;5.60;5.10;;;;;;;;;;5033668;28;20266;-67
2022/08/16 03:41:41;;;;;;;7.27;5.43;;;;;;;;;;5033571;28;20203;-67
2022/08/16 03:44:07;;;;;;;5.77;5.27;;;;;;;;;;5033545;28;20198;-68
2022/08/16 03:46:34;;;;;;;7.97;5.40;;;;;;;;;;5015784;28;20269;-67
2022/08/16 03:49:00;;;;;;;6.53;5.87;;;;;;;;;;5033487;28;20179;-67
2022/08/16 03:51:26;;;;;;;7.63;5.70;;;;;;;;;;5033646;28;20225;-67
2022/08/16 03:53:52;;;;;;;7.80;5.83;;;;;;;;;;5033332;28;20574;-67
2022/08/16 03:56:18;;;;;;;6.07;5.47;;;;;;;;;;5033949;28;20267;-67
2022/08/16 03:58:44;;;;;;;8.20;5.30;;;;;;;;;;5033457;28;20294;-67
2022/08/16 04:01:10;;;;;;;12.37;5.57;;;;;;;;;;5015917;28;20175;-68
2022/08/16 04:03:36;;;;;;;6.73;5.80;;;;;;;;;;5015636;28;20185;-67
2022/08/16 04:06:02;;;;;;;7.40;5.33;;;;;;;;;;5015653;28;20190;-68
2022/08/16 04:08:30;;;;;;;8.70;5.83;;;;;;;;;;5015411;28;20190;-68
2022/08/16 04:10:56;;;;;;;7.23;5.67;;;;;;;;;;5033154;28;20261;-67
2022/08/16 04:13:22;;;;;;;9.70;5.60;;;;;;;;;;5033233;28;20186;-67
2022/08/16 04:15:48;;;;;;;9.33;5.63;;;;;;;;;;5033349;28;20284;-67
2022/08/16 04:18:16;;;;;;;9.90;5.93;;;;;;;;;;5015390;28;20253;-67
2022/08/16 04:20:42;;;;;;;6.90;5.60;;;;;;;;;;5033683;28;20174;-67
2022/08/16 04:23:08;;;;;;;12.17;5.93;;;;;;;;;;5033357;28;20179;-67
2022/08/16 04:25:34;;;;;;;9.37;5.63;;;;;;;;;;5015653;28;20246;-67
2022/08/16 04:28:00;;;;;;;9.20;6.33;;;;;;;;;;5033037;28;20237;-67
2022/08/16 04:30:26;;;;;;;6.27;5.67;;;;;;;;;;5032974;28;20187;-67
2022/08/16 04:32:52;;;;;;;7.10;6.10;;;;;;;;;;5015292;28;20270;-68
2022/08/16 04:35:21;;;;;;;7.43;5.67;;;;;;;;;;5032975;28;20298;-67
2022/08/16 04:37:47;;;;;;;6.33;5.73;;;;;;;;;;5032955;28;20241;-67
2022/08/16 04:40:14;;;;;;;11.93;6.23;;;;;;;;;;5032912;28;20234;-68
2022/08/16 04:42:41;;;;;;;7.40;5.50;;;;;;;;;;5032917;28;20237;-68
2022/08/16 04:45:09;;;;;;;8.37;6.30;;;;;;;;;;5035273;28;20191;-67
2022/08/16 04:47:35;;;;;;;9.60;6.83;;;;;;;;;;5036675;28;20195;-67
2022/08/16 04:50:05;;;;;;;7.07;6.17;;;;;;;;;;5018917;28;20211;-67
2022/08/16 04:52:31;;;;;;;6.03;5.40;;;;;;;;;;5037246;28;20217;-68
2022/08/16 04:54:57;;;;;;;9.20;5.50;;;;;;;;;;5018880;28;20207;-68
2022/08/16 04:57:23;;;;;;;8.50;6.73;;;;;;;;;;5036718;28;20241;-66
2022/08/16 04:59:49;;;;;;;8.93;5.77;;;;;;;;;;5018930;28;20186;-67
2022/08/16 05:02:15;;;;;;;7.30;6.60;;;;;;;;;;5036705;28;20175;-67
2022/08/16 05:04:41;;;;;;;7.00;5.73;;;;;;;;;;5018719;28;20564;-67
2022/08/16 05:07:07;;;;;;;7.67;6.03;;;;;;;;;;5036466;28;20265;-67
2022/08/16 05:09:33;;;;;;;8.23;5.90;;;;;;;;;;5036316;28;20179;-67
2022/08/16 05:11:59;;;;;;;8.50;6.30;;;;;;;;;;5036397;28;20182;-67
2022/08/16 05:14:25;;;;;;;10.83;6.80;;;;;;;;;;5018676;28;20207;-67
2022/08/16 05:16:51;;;;;;;7.57;6.50;;;;;;;;;;5018555;28;20179;-67
2022/08/16 05:19:17;;;;;;;9.13;6.63;;;;;;;;;;5036212;28;20179;-67
2022/08/16 05:21:43;;;;;;;8.50;6.90;;;;;;;;;;5018544;28;20182;-67
2022/08/16 05:24:09;;;;;;;10.17;6.90;;;;;;;;;;5018058;28;20222;-67
2022/08/16 05:26:36;;;;;;;7.20;6.30;;;;;;;;;;5018360;28;20218;-67
2022/08/16 05:29:04;;;;;;;10.47;6.47;;;;;;;;;;5036029;28;20175;-67
2022/08/16 05:31:30;;;;;;;8.20;6.50;;;;;;;;;;5068409;22;20287;-70
2022/08/16 05:34:00;;;;;;;6.87;6.17;;;;;;;;;;5060109;28;20174;-70
2022/08/16 05:36:26;;;;;;;8.67;6.50;;;;;;;;;;5058534;28;20193;-69
2022/08/16 05:38:52;;;;;;;13.33;7.00;;;;;;;;;;5058731;28;20206;-71
2022/08/16 05:41:18;;;;;;;10.27;6.50;;;;;;;;;;5060229;28;20221;-73
2022/08/16 05:43:44;;;;;;;10.90;6.70;;;;;;;;;;5059543;28;20265;-70
2022/08/16 05:46:11;;;;;;;12.70;6.30;;;;;;;;;;5060728;28;20648;-70
2022/08/16 05:48:37;;;;;;;9.50;5.90;;;;;;;;;;5059934;28;20182;-68
2022/08/16 05:51:02;;;;;;;8.37;6.30;;;;;;;;;;5058847;28;20233;-70
2022/08/16 05:53:28;;;;;;;7.87;5.97;;;;;;;;;;5058959;28;20532;-69
2022/08/16 05:55:55;;;;;;;10.30;6.50;;;;;;;;;;5057982;28;20227;-70
2022/08/16 05:58:21;;;;;;;7.37;6.10;;;;;;;;;;5060314;28;20276;-69
2022/08/16 06:00:47;;;;;;;15.27;6.40;;;;;;;;;;5060112;28;20218;-69
2022/08/16 06:03:13;;;;;;;9.40;6.10;;;;;;;;;;5058857;28;20177;-69
2022/08/16 06:05:39;;;;;;;9.27;6.07;;;;;;;;;;5060623;28;20240;-70
2022/08/16 06:08:04;;;;;;;11.67;6.67;;;;;;;;;;5060236;28;20185;-70
2022/08/16 06:10:30;;;;;;;9.73;6.40;;;;;;;;;;5059670;28;20666;-69
2022/08/16 06:12:56;;;;;;;9.70;6.80;;;;;;;;;;5059127;28;20182;-69
2022/08/16 06:15:22;;;;;;;7.37;6.50;;;;;;;;;;5058388;28;20269;-69
2022/08/16 06:17:48;;;;;;;9.73;6.57;;;;;;;;;;5058821;28;20202;-70
2022/08/16 06:20:20;;;;;;;7.67;6.90;;;;;;;;;;5059097;28;20198;-70
2022/08/16 06:22:46;;;;;;;9.00;6.43;;;;;;;;;;5059639;28;20662;-69
2022/08/16 06:25:12;;;;;;;7.77;6.37;;;;;;;;;;5059632;28;20188;-70
2022/08/16 06:27:38;;;;;;;9.30;6.97;;;;;;;;;;5058065;28;20182;-71
2022/08/16 06:30:06;;;;;;;8.17;6.43;;;;;;;;;;5059112;28;20205;-70
2022/08/16 06:32:32;;;;;;;7.53;6.37;;;;;;;;;;5060013;28;20205;-69
2022/08/16 06:34:58;;;;;;;13.27;6.73;;;;;;;;;;5058707;28;20183;-69
2022/08/16 06:37:24;;;;;;;8.00;6.80;;;;;;;;;;5059650;28;20194;-70
2022/08/16 06:39:50;;;;;;;7.97;6.57;;;;;;;;;;5057748;28;20552;-70
2022/08/16 06:42:16;;;;;;;7.43;6.70;;;;;;;;;;5058799;28;20232;-67
2022/08/16 06:44:42;;;;;;;15.33;11.73;;;;;;;;;;5058381;28;20183;-68
2022/08/16 06:47:08;;;;;;;49.40;32.57;;;;;;;;;;5058298;28;20656;-69
2022/08/16 06:49:34;;;;;;;35.27;24.03;;;;;;;;;;5058286;28;20193;-69
2022/08/16 06:52:00;;;;;;;39.60;27.63;;;;;;;;;;5056723;28;20214;-68
2022/08/16 06:54:26;;;;;;;15.97;12.30;;;;;;;;;;5058196;28;20192;-69
2022/08/16 06:56:52;;;;;;;9.00;7.77;;;;;;;;;;5058231;28;20178;-69
2022/08/16 06:59:18;;;;;;;10.87;7.93;;;;;;;;;;5056531;28;20182;-69
2022/08/16 07:01:44;;;;;;;9.77;7.07;;;;;;;;;;5058135;28;20205;-67
2022/08/16 07:04:10;;;;;;;9.13;7.33;;;;;;;;;;5056875;28;20656;-69
2022/08/16 07:06:36;;;;;;;8.27;7.20;;;;;;;;;;5057974;28;20178;-69
2022/08/16 07:09:02;;;;;;;10.33;6.70;;;;;;;;;;5058241;28;20568;-69
2022/08/16 07:11:28;;;;;;;8.33;6.97;;;;;;;;;;5058580;28;20374;-70
2022/08/16 07:13:54;;;;;;;13.83;7.60;;;;;;;;;;5058598;28;20182;-69
2022/08/16 07:16:20;;;;;;;9.30;7.70;;;;;;;;;;5058740;28;20193;-70
2022/08/16 07:18:46;;;;;;;7.67;6.50;;;;;;;;;;5060788;28;20666;-69
2022/08/16 07:21:14;;;;;;;7.60;6.63;;;;;;;;;;5058606;28;20204;-68
2022/08/16 07:23:40;;;;;;;7.97;7.07;;;;;;;;;;5059202;28;20198;-69
2022/08/16 07:26:11;;;;;;;8.67;7.30;;;;;;;;;;5057547;28;20183;-70
2022/08/16 07:28:37;;;;;;;10.83;6.73;;;;;;;;;;5059290;28;20189;-67
2022/08/16 07:31:04;;;;;;;10.47;7.97;;;;;;;;;;5058854;28;20229;-70
2022/08/16 07:33:34;;;;;;;8.80;7.33;;;;;;;;;;5058170;28;20179;-68
2022/08/16 07:36:00;;;;;;;11.73;8.13;;;;;;;;;;5054705;28;20304;-69
2022/08/16 07:38:26;;;;;;;8.67;7.73;;;;;;;;;;5054351;28;20285;-69
2022/08/16 07:40:53;;;;;;;9.37;8.37;;;;;;;;;;5053652;28;20230;-69
2022/08/16 07:43:19;;;;;;;9.20;7.87;;;;;;;;;;5054601;28;20182;-69
2022/08/16 07:45:45;;;;;;;10.80;7.47;;;;;;;;;;5054933;28;20249;-69
2022/08/16 07:48:12;;;;;;;10.60;7.60;;;;;;;;;;5054452;28;20216;-69
2022/08/16 07:50:38;;;;;;;11.30;7.40;;;;;;;;;;5052984;28;20206;-69
2022/08/16 07:53:04;;;;;;;8.40;7.20;;;;;;;;;;5054450;28;20196;-69
2022/08/16 07:55:30;;;;;;;11.27;7.47;;;;;;;;;;5054694;28;20674;-69
2022/08/16 07:57:56;;;;;;;10.97;7.57;;;;;;;;;;5054622;28;20198;-69
2022/08/16 08:00:21;;;;;;;9.97;7.50;;;;;;;;;;5054563;28;20552;-69
2022/08/16 08:02:48;;;;;;;9.63;7.87;;;;;;;;;;5054676;28;20639;-69
2022/08/16 08:05:14;;;;;;;8.60;7.20;;;;;;;;;;5053105;28;20174;-69
2022/08/16 08:07:40;;;;;;;10.47;8.23;;;;;;;;;;5053005;28;20190;-69
2022/08/16 08:10:06;;;;;;;8.50;7.10;;;;;;;;;;5054351;28;20240;-70
2022/08/16 08:12:32;;;;;;;11.60;8.33;;;;;;;;;;5054330;28;20183;-70
2022/08/16 08:14:58;;;;;;;9.23;8.33;;;;;;;;;;5053066;28;20719;-69
2022/08/16 08:17:24;;;;;;;10.10;7.60;;;;;;;;;;5054072;28;20202;-69
2022/08/16 08:19:50;;;;;;;9.80;8.63;;;;;;;;;;5054101;28;20643;-69
2022/08/16 08:22:16;;;;;;;9.87;8.17;;;;;;;;;;5053856;28;20236;-67
2022/08/16 08:24:42;;;;;;;14.80;8.00;;;;;;;;;;5054164;28;20177;-69
2022/08/16 08:27:08;;;;;;;9.23;8.03;;;;;;;;;;5053999;28;20174;-69
2022/08/16 08:29:35;;;;;;;9.53;8.63;;;;;;;;;;5052715;28;20179;-69
2022/08/16 08:32:01;;;;;;;8.70;7.77;;;;;;;;;;5053957;28;20217;-69
2022/08/16 08:34:28;;;;;;;9.90;8.50;;;;;;;;;;5054439;28;20181;-69
2022/08/16 08:36:54;;;;;;;15.33;9.70;;;;;;;;;;5054027;28;20185;-69
2022/08/16 08:39:20;;;;;;;20.80;9.13;;;;;;;;;;5053883;28;20178;-69
2022/08/16 08:41:46;;;;;;;11.60;8.87;;;;;;;;;;5052511;28;20697;-69
2022/08/16 08:44:12;;;;;;;11.43;7.70;;;;;;;;;;5053880;28;20171;-69
2022/08/16 08:46:38;;;;;;;9.37;8.13;;;;;;;;;;5054408;28;20182;-69
2022/08/16 08:49:06;;;;;;;10.43;7.93;;;;;;;;;;5054281;28;20253;-69
2022/08/16 08:51:33;;;;;;;9.60;8.70;;;;;;;;;;5053900;28;20559;-69
2022/08/16 08:53:59;;;;;;;8.60;7.77;;;;;;;;;;5053654;28;20179;-69
2022/08/16 08:56:25;;;;;;;10.23;7.77;;;;;;;;;;5054279;28;20181;-69
2022/08/16 08:58:51;;;;;;;8.77;7.67;;;;;;;;;;5054206;28;20281;-69
2022/08/16 09:01:19;;;;;;;10.37;8.27;;;;;;;;;;5053691;28;20685;-70
2022/08/16 09:03:45;;;;;;;11.60;8.03;;;;;;;;;;5053812;28;20627;-69
2022/08/16 09:06:11;;;;;;;12.33;7.43;;;;;;;;;;5053806;28;20175;-69
2022/08/16 09:08:38;;;;;;;9.70;8.17;;;;;;;;;;5053552;28;20186;-68
2022/08/16 09:11:04;;;;;;;7.50;6.80;;;;;;;;;;5054113;28;20195;-70
2022/08/16 09:13:31;;;;;;;9.00;7.53;;;;;;;;;;5053929;28;20232;-69
2022/08/16 09:15:58;;;;;;;10.63;8.17;;;;;;;;;;5053960;28;20696;-69
2022/08/16 09:18:24;;;;;;;8.83;7.17;;;;;;;;;;5054321;28;20199;-69
2022/08/16 09:20:51;;;;;;;8.03;7.30;;;;;;;;;;5053686;28;20569;-69
2022/08/16 09:23:18;;;;;;;7.80;7.10;;;;;;;;;;5052197;28;20178;-70
2022/08/16 09:25:45;;;;;;;10.53;7.50;;;;;;;;;;5052154;28;20178;-67
2022/08/16 09:28:10;;;;;;;7.37;6.70;;;;;;;;;;5053353;28;20218;-70
2022/08/16 09:30:37;;;;;;;10.70;6.80;;;;;;;;;;5053430;28;20210;-70
2022/08/16 09:33:04;;;;;;;8.03;6.80;;;;;;;;;;5056049;28;20186;-70
2022/08/16 09:35:30;;;;;;;7.83;6.20;;;;;;;;;;5057043;28;20189;-70
2022/08/16 09:37:56;;;;;;;10.17;7.10;;;;;;;;;;5056265;28;20207;-70
2022/08/16 09:40:22;;;;;;;14.27;8.03;;;;;;;;;;5057300;28;20195;-70
2022/08/16 09:42:48;;;;;;;7.73;7.03;;;;;;;;;;5057327;28;20236;-70
2022/08/16 09:45:15;;;;;;;11.07;8.00;;;;;;;;;;5057361;28;20261;-70
2022/08/16 09:47:41;;;;;;;11.30;6.97;;;;;;;;;;5057254;28;20190;-70
2022/08/16 09:50:08;;;;;;;9.20;7.40;;;;;;;;;;5056957;28;20241;-70
2022/08/16 09:52:36;;;;;;;8.50;7.20;;;;;;;;;;5057347;28;20179;-69
2022/08/16 09:55:02;;;;;;;9.87;6.73;;;;;;;;;;5055497;28;20182;-70
2022/08/16 09:57:28;;;;;;;8.37;6.83;;;;;;;;;;5055362;28;20206;-70
2022/08/16 09:59:54;;;;;;;7.87;7.10;;;;;;;;;;5056595;28;20660;-70
2022/08/16 10:02:20;;;;;;;12.77;6.87;;;;;;;;;;5055266;28;20186;-68
2022/08/16 10:04:46;;;;;;;8.70;6.97;;;;;;;;;;5056227;28;20174;-69
2022/08/16 10:07:12;;;;;;;11.80;6.47;;;;;;;;;;5055077;28;20550;-70
2022/08/16 10:09:38;;;;;;;10.80;6.77;;;;;;;;;;5056445;28;20182;-70
2022/08/16 10:14:49;;;;;;;10.70;6.20;;;;;;;;;;5056296;28;20236;-70
2022/08/16 10:17:15;;;;;;;9.00;6.50;;;;;;;;;;5055317;28;20265;-69
2022/08/16 10:19:42;;;;;;;9.30;5.43;;;;;;;;;;5056919;28;20175;-69
2022/08/16 10:22:09;;;;;;;7.23;6.53;;;;;;;;;;5055908;28;20182;-69
2022/08/16 10:24:35;;;;;;;8.50;6.07;;;;;;;;;;5056371;28;20170;-67
2022/08/16 10:27:01;;;;;;;14.17;5.97;;;;;;;;;;5059001;28;20209;-70
2022/08/16 10:29:27;;;;;;;7.43;5.70;;;;;;;;;;5058069;28;20177;-69
2022/08/16 10:31:53;;;;;;;6.80;5.57;;;;;;;;;;5056171;28;20206;-69
2022/08/16 10:34:19;;;;;;;11.60;6.57;;;;;;;;;;5055545;28;20232;-69
2022/08/16 10:36:45;;;;;;;7.93;6.23;;;;;;;;;;5059116;28;20280;-71
2022/08/16 10:39:11;;;;;;;8.87;5.63;;;;;;;;;;5060353;28;20209;-69
2022/08/16 10:41:37;;;;;;;12.20;5.57;;;;;;;;;;5057229;28;20540;-70
2022/08/16 10:44:03;;;;;;;6.67;5.83;;;;;;;;;;5057564;28;20252;-69
2022/08/16 10:46:38;;;;;;;6.07;5.03;;;;;;;;;;5057449;28;20177;-71
2022/08/16 10:49:04;;;;;;;8.33;5.70;;;;;;;;;;5059279;28;20209;-71
2022/08/16 10:51:31;;;;;;;11.37;5.67;;;;;;;;;;5058151;28;20209;-70
2022/08/16 10:53:57;;;;;;;7.03;6.17;;;;;;;;;;5058772;28;20262;-69
2022/08/16 10:56:24;;;;;;;6.00;5.40;;;;;;;;;;5056693;28;20178;-69
2022/08/16 10:58:50;;;;;;;6.90;6.10;;;;;;;;;;5057424;28;20214;-69
2022/08/16 11:01:16;;;;;;;6.47;5.70;;;;;;;;;;5056723;28;20201;-69
2022/08/16 11:03:43;;;;;;;8.20;5.60;;;;;;;;;;5055821;28;20178;-69
2022/08/16 11:06:09;;;;;;;6.23;5.63;;;;;;;;;;5054603;28;20182;-68
2022/08/16 11:08:36;;;;;;;9.33;6.23;;;;;;;;;;5056696;28;20669;-69
2022/08/16 11:11:02;;;;;;;8.30;5.87;;;;;;;;;;5058244;28;20194;-69
2022/08/16 11:13:28;;;;;;;9.23;4.97;;;;;;;;;;5058577;28;20700;-69
2022/08/16 11:15:56;;;;;;;6.63;5.20;;;;;;;;;;5061430;28;20179;-69
2022/08/16 11:18:22;;;;;;;7.23;5.70;;;;;;;;;;5060114;28;20630;-69
2022/08/16 11:20:48;;;;;;;5.53;5.03;;;;;;;;;;5062511;28;20662;-69
2022/08/16 11:23:14;;;;;;;5.22;4.72;;;;;;;;;;5063339;28;20224;-69
2022/08/16 11:25:41;;;;;;;7.37;4.83;;;;;;;;;;5063082;28;20564;-70
2022/08/16 11:28:08;;;;;;;5.33;4.83;;;;;;;;;;5063027;28;20178;-70
2022/08/16 11:33:03;;;;;;;7.10;5.05;;;;;;;;;;5013875;28;20265;-68
2022/08/16 11:35:29;;;;;;;;;;;;;;;;;;5014474;28;20490;-67
2022/08/16 11:37:57;;;;;;;6.20;5.60;;;;;;;;;;5013001;28;20405;-67
2022/08/16 11:40:24;;;;;;;6.75;5.95;;;;;;;;;;4996277;28;20227;-67
2022/08/16 11:42:51;;;;;;;6.40;5.78;;;;;;;;;;5013677;28;20723;-67
2022/08/16 11:45:17;;;;;;;7.07;5.88;;;;;;;;;;5013919;28;20207;-68
2022/08/16 11:47:43;;;;;;;7.30;6.60;;;;;;;;;;4996847;28;20563;-67
2022/08/16 11:50:09;;;;;;;11.00;5.53;;;;;;;;;;5013948;28;20175;-68
2022/08/16 11:52:36;;;;;;;8.00;6.05;;;;;;;;;;4996132;28;20203;-67
2022/08/16 11:55:04;;;;;;;6.00;5.40;;;;;;;;;;5013573;28;20176;-67
2022/08/16 11:57:30;;;;;;;7.70;5.37;;;;;;;;;;4995907;28;20214;-67
2022/08/16 11:59:56;;;;;;;7.10;5.78;;;;;;;;;;5013736;28;20172;-67
2022/08/16 12:02:22;;;;;;;5.78;5.28;;;;;;;;;;4995802;28;20239;-67
2022/08/16 12:04:48;;;;;;;6.82;5.00;;;;;;;;;;5013335;28;20183;-67
2022/08/16 12:07:14;;;;;;;5.90;5.30;;;;;;;;;;5013580;28;20180;-67
2022/08/16 12:09:40;;;;;;;7.17;4.83;;;;;;;;;;4995762;28;20179;-68
2022/08/16 12:12:06;;;;;;;6.43;4.80;;;;;;;;;;4995592;28;20253;-68
2022/08/16 12:14:33;;;;;;;8.88;4.85;;;;;;;;;;5013359;28;20180;-67
2022/08/16 12:17:01;;;;;;;5.68;5.18;;;;;;;;;;5013518;28;20183;-67
2022/08/16 12:19:27;;;;;;;8.43;4.90;;;;;;;;;;5013846;28;20279;-68
2022/08/16 12:21:53;;;;;;;6.03;5.03;;;;;;;;;;5013426;28;20199;-67
2022/08/16 12:24:19;;;;;;;5.15;4.63;;;;;;;;;;5013544;28;20176;-68
2022/08/16 12:26:45;;;;;;;5.40;4.53;;;;;;;;;;5013486;28;20229;-68
2022/08/16 12:29:11;;;;;;;5.10;4.70;;;;;;;;;;4995999;28;20279;-67
2022/08/16 12:31:37;;;;;;;6.63;5.18;;;;;;;;;;5013340;28;20277;-67
2022/08/16 12:34:06;;;;;;;7.65;4.82;;;;;;;;;;5013566;28;20267;-67
2022/08/16 12:36:34;;;;;;;5.65;4.45;;;;;;;;;;5013296;28;20176;-67
2022/08/16 12:39:01;;;;;;;6.25;4.80;;;;;;;;;;4995410;28;20228;-67
2022/08/16 12:41:27;;;;;;;5.93;5.13;;;;;;;;;;5013089;28;20656;-68
2022/08/16 12:43:54;;;;;;;7.28;4.80;;;;;;;;;;5013087;28;20264;-67
2022/08/16 12:46:20;;;;;;;6.47;5.25;;;;;;;;;;4995491;28;20275;-67
2022/08/16 12:48:58;;;;;;;5.63;5.13;;;;;;;;;;5013503;28;20628;-66
2022/08/16 12:51:35;;;;;;;10.23;8.50;;;;;;;;;;5012961;28;20192;-68
2022/08/16 12:54:03;;;;;;;10.05;6.05;;;;;;;;;;4995471;28;20184;-67
2022/08/16 12:56:31;;;;;;;7.65;5.45;;;;;;;;;;4995402;28;20671;-67
2022/08/16 12:58:58;;;;;;;8.25;5.47;;;;;;;;;;4995331;28;20207;-67
2022/08/16 13:01:25;;;;;;;6.25;5.60;;;;;;;;;;5013101;28;20202;-68
2022/08/16 13:03:55;;;;;;;7.65;5.50;;;;;;;;;;4995173;28;20187;-68
2022/08/16 13:06:22;;;;;;;5.63;5.03;;;;;;;;;;5015494;28;20199;-68
2022/08/16 13:08:49;;;;;;;6.10;5.07;;;;;;;;;;5016455;28;20183;-67
2022/08/16 13:11:19;;;;;;;7.57;5.65;;;;;;;;;;5016613;28;20282;-68
2022/08/16 13:13:45;;;;;;;6.28;5.60;;;;;;;;;;4999289;28;20175;-68
2022/08/16 13:16:11;;;;;;;5.40;4.82;;;;;;;;;;5016601;28;20183;-68
2022/08/16 13:18:37;;;;;;;8.77;4.90;;;;;;;;;;5017335;28;20543;-68
2022/08/16 13:21:04;;;;;;;7.47;5.05;;;;;;;;;;5016785;28;20215;-69
2022/08/16 13:23:30;;;;;;;7.22;5.50;;;;;;;;;;5015406;28;20423;-67
2022/08/16 13:25:56;;;;;;;5.57;5.03;;;;;;;;;;5016313;28;20176;-68
2022/08/16 13:28:22;;;;;;;6.22;5.28;;;;;;;;;;5016581;28;20202;-68
2022/08/16 13:30:50;;;;;;;5.80;4.85;;;;;;;;;;5015951;28;20210;-68
2022/08/16 13:33:18;;;;;;;8.38;5.18;;;;;;;;;;4998563;28;20263;-67
2022/08/16 13:35:46;;;;;;;9.43;4.68;;;;;;;;;;5016661;28;20191;-68
2022/08/16 13:38:13;;;;;;;11.35;5.05;;;;;;;;;;4998397;28;20207;-69
2022/08/16 13:40:39;;;;;;;7.00;4.63;;;;;;;;;;4998470;28;20175;-68
2022/08/16 13:43:05;;;;;;;8.00;5.28;;;;;;;;;;5016275;28;20186;-68
2022/08/16 13:45:32;;;;;;;5.75;5.25;;;;;;;;;;5015962;28;20176;-67
2022/08/16 13:47:58;;;;;;;6.30;5.28;;;;;;;;;;5016029;28;20715;-68
2022/08/16 13:50:25;;;;;;;5.13;4.70;;;;;;;;;;5016055;28;20183;-68
2022/08/16 13:52:52;;;;;;;8.52;4.95;;;;;;;;;;5016074;28;20191;-68
2022/08/16 13:55:18;;;;;;;9.10;4.97;;;;;;;;;;5015837;28;20214;-68
2022/08/16 13:57:44;;;;;;;7.43;4.97;;;;;;;;;;5015957;28;20235;-68
2022/08/16 14:00:10;;;;;;;6.22;5.10;;;;;;;;;;5015698;28;20552;-68
2022/08/16 14:02:36;;;;;;;5.10;4.63;;;;;;;;;;5015647;28;20196;-68
2022/08/16 14:05:03;;;;;;;5.93;5.28;;;;;;;;;;4997915;28;20191;-68
2022/08/16 14:07:29;;;;;;;8.65;5.10;;;;;;;;;;5015553;28;20263;-68
2022/08/16 14:09:55;;;;;;;6.13;5.53;;;;;;;;;;5015456;28;20552;-69
2022/08/16 14:12:23;;;;;;;5.43;4.88;;;;;;;;;;5015307;28;20204;-68
2022/08/16 14:14:49;;;;;;;6.57;5.03;;;;;;;;;;5015429;28;20172;-68
2022/08/16 14:17:16;;;;;;;5.57;5.07;;;;;;;;;;4997259;28;20183;-68
2022/08/16 14:19:42;;;;;;;5.97;4.82;;;;;;;;;;5015620;28;20198;-68
2022/08/16 14:22:08;;;;;;;5.53;5.03;;;;;;;;;;5015175;28;20671;-68
2022/08/16 14:24:35;;;;;;;8.85;4.82;;;;;;;;;;5015453;28;20667;-68
2022/08/16 14:27:01;;;;;;;5.00;4.60;;;;;;;;;;4997515;28;20179;-67
2022/08/16 14:29:27;;;;;;;6.00;5.38;;;;;;;;;;5015034;28;20211;-67
2022/08/16 14:31:56;;;;;;;5.70;4.43;;;;;;;;;;5015096;28;20228;-68
2022/08/16 14:34:22;;;;;;;6.35;5.15;;;;;;;;;;5015438;28;20176;-68
2022/08/16 14:36:48;;;;;;;5.82;4.72;;;;;;;;;;5015086;28;20184;-68
2022/08/16 14:39:14;;;;;;;6.13;4.45;;;;;;;;;;5015385;28;20278;-70
2022/08/16 14:41:40;;;;;;;6.50;4.90;;;;;;;;;;5014956;28;20587;-68